• Join FlightAware (Why Join?)
  • Login
  • US Flag 
07:54AM EDT


 

Airport Tracker/Info


-or-


 

Live Flight TrackerFlight Track Log ✈ SWA561 ✈ 19-Apr-2013 ✈ KLAX - KTUS

Flight Track Log - Related Links

Times and Time Zones

All times are in EDT time to prevent confusion due to time zone crossing. See the SWA561 flight status page for this flight to view local times or setup timezone preferences in your user account.

Time Position Orientation Groundspeed Altitude Reporting Facility
EDT Latitude Longitude Course Direction KTS MPH feet Rate Location/Type
10:11PM 33.9364 -118.5514 264° West 247 284 4,200  Level Los Angeles Center
10:12PM 33.8758 -118.6050 216° Southwest 284 327 7,000 2,640 Climbing Los Angeles Center
10:13PM 33.7992 -118.5722 160° South 300 345 9,700 2,640 Climbing Los Angeles Center
10:14PM 33.7122 -118.5264 156° South 349 402 12,500 2,760 Climbing Los Angeles Center
10:15PM 33.6675 -118.4217 117° Southeast 364 419 15,500 3,060 Climbing Los Angeles Center
10:16PM 33.6436 -118.2778 101° East 385 443 18,800 2,760 Climbing Los Angeles Center
10:17PM 33.6444 -118.1456 90° East 401 461 21,200 2,340 Climbing Los Angeles Center
10:18PM 33.6439 -118.0050 90° East 421 484 23,700 2,580 Climbing Los Angeles Center
10:19PM 33.6444 -117.8631 90° East 428 493 26,600 2,580 Climbing Los Angeles Center
10:20PM 33.6442 -117.7217 90° East 426 490 29,000 1,140 Climbing Los Angeles Center
10:21PM 33.6419 -117.5528 91° East 425 489 29,000  Level Los Angeles Center
10:22PM 33.6431 -117.4108 89° East 426 490 29,000  Level Los Angeles Center
10:23PM 33.6414 -117.2703 91° East 424 488 29,000  Level Los Angeles Center
10:24PM 33.6397 -117.1289 91° East 426 490 29,000  Level Los Angeles Center
10:25PM 33.6386 -116.9875 91° East 427 491 29,000  Level Los Angeles Center
10:26PM 33.6361 -116.8283 91° East 424 488 29,000  Level Los Angeles Center
10:27PM 33.6361 -116.6853 90° East 425 489 29,000  Level Los Angeles Center
10:28PM 33.6331 -116.5431 91° East 425 489 29,000  Level Los Angeles Center
10:29PM 33.6325 -116.4003 90° East 426 490 29,000  Level Los Angeles Center
10:30PM 33.6289 -116.2569 92° East 427 491 29,000  Level Los Angeles Center
10:31PM 33.6261 -116.1122 91° East 432 497 29,000  Level Los Angeles Center
10:32PM 33.6233 -115.9694 91° East 429 494 29,000  Level Los Angeles Center
10:33PM 33.6208 -115.7981 91° East 427 491 29,000  Level Los Angeles Center
10:34PM 33.6175 -115.6553 92° East 429 494 29,000  Level Los Angeles Center
10:35PM 33.6125 -115.5114 92° East 431 496 29,000  Level Los Angeles Center
10:36PM 33.6106 -115.3681 91° East 429 494 29,000  Level Los Angeles Center
10:37PM 33.6069 -115.2236 92° East 433 498 29,000  Level Los Angeles Center
10:38PM 33.6022 -115.0806 92° East 431 496 29,000  Level Los Angeles Center
10:39PM 33.5686 -114.9414 106° East 433 498 29,000  Level Los Angeles Center
10:40PM 33.5325 -114.8022 107° East 436 502 29,000  Level Los Angeles Center
10:41PM 33.4842 -114.6311 109° East 448 516 29,000  Level Los Angeles Center
10:42PM 33.4664 -114.5353 103° East 439 505 29,000  Level Albuquerque Center
10:43PM 33.4281 -114.3936 108° East 445 512 29,000  Level Albuquerque Center
10:44PM 33.3914 -114.2553 108° East 441 507 29,000  Level Albuquerque Center
10:45PM 33.3539 -114.1156 108° East 440 506 29,000  Level Albuquerque Center
10:46PM 33.3175 -113.9764 107° East 440 506 29,000  Level Albuquerque Center
10:47PM 33.2719 -113.8100 108° East 439 505 29,000  Level Albuquerque Center
10:48PM 33.2339 -113.6733 108° East 436 502 29,000  Level Albuquerque Center
10:49PM 33.1967 -113.5356 108° East 435 501 29,000  Level Albuquerque Center
10:50PM 33.1592 -113.3975 108° East 437 503 29,000  Level Albuquerque Center
10:51PM 33.1206 -113.2583 108° East 439 505 29,000 -360 Level Albuquerque Center
10:53PM 33.0822 -113.1219 109° East 435 501 28,300 -840 Descending Albuquerque Center
10:54PM 33.0444 -112.9858 108° East 433 498 27,400 -960 Descending Albuquerque Center
10:55PM 33.0056 -112.8478 109° East 435 501 26,400 -720 Descending Albuquerque Center
10:56PM 32.9667 -112.7117 109° East 434 499 26,000 -240 Descending Albuquerque Center
10:57PM 32.9203 -112.5767 112° Southeast 436 502 26,000  Level Albuquerque Center
10:58PM 32.8681 -112.4453 115° Southeast 438 504 26,000 -420 Level Albuquerque Center
10:59PM 32.8194 -112.3206 115° Southeast 425 489 25,200 -2,340 Descending Albuquerque Center
11:00PM 32.7689 -112.1850 114° Southeast 412 474 21,300 -3,060 Descending Albuquerque Center
11:01PM 32.7167 -112.0531 115° Southeast 432 497 19,000 -2,100 Descending Albuquerque Center
11:02PM 32.6675 -111.9267 115° Southeast 430 495 17,100 -2,160 Descending Albuquerque Center
11:03PM 32.6117 -111.7878 115° Southeast 414 476 14,700 -2,100 Descending Albuquerque Center
11:04PM 32.5739 -111.6897 115° Southeast 397 457 12,800 -2,040 Descending Albuquerque Center
11:04PM 32.5331 -111.6089 121° Southeast 382 440 11,500 -1,680 Descending Albuquerque Center
11:05PM 32.5131 -111.5628 117° Southeast 375 432 11,100 -1,140 Descending Albuquerque Center
11:05PM 32.4925 -111.5314 128° Southeast 365 420 10,600 -1,140 Descending Albuquerque Center
11:06PM 32.4622 -111.4653 118° Southeast 356 410 10,000 -1,020 Descending Albuquerque Center
11:07PM 32.4197 -111.3778 120° Southeast 319 367 8,900 -1,140 Descending Albuquerque Center
11:08PM 32.3794 -111.2925 119° Southeast 304 350 7,700 -1,140 Descending Albuquerque Center
11:09PM 32.3383 -111.2136 122° Southeast 288 331 6,600 -840 Descending Albuquerque Center
11:10PM 32.2933 -111.1381 125° Southeast 285 328 6,000 -480 Descending Albuquerque Center
11:11PM 32.2372 -111.0825 140° Southeast 237 273 5,700 -600 Descending Albuquerque Center
11:12PM 32.2044 -111.0353 129° Southeast 237 273 4,800 -1,020 Descending Albuquerque Center
11:13PM 32.1622 -110.9944 141° Southeast 182 209 3,700 -1,020 Descending Albuquerque Center
11:14PM 32.1283 -110.9533 134° Southeast 164 189 2,800 -900 Descending Albuquerque Center
11:16PM 32.1161 -110.9410 128° Southeast  Level Estimated